createdAt,value
2022-12-19T00:16:35.199Z,3.90
2022-12-19T00:21:42.686Z,3.90
2022-12-19T00:32:40.116Z,4.10
2022-12-19T00:37:59.729Z,4.10
2022-12-19T00:43:09.338Z,4.10
2022-12-19T00:48:11.443Z,4.20
2022-12-19T00:53:15.596Z,4.20
2022-12-19T00:58:17.522Z,4.20
2022-12-19T01:03:19.521Z,4.20
2022-12-19T01:08:21.622Z,4.30
2022-12-19T01:13:27.358Z,4.20
2022-12-19T01:18:29.326Z,4.20
2022-12-19T01:23:31.706Z,4.10
2022-12-19T01:28:33.640Z,4.10
2022-12-19T01:33:35.715Z,4.00
2022-12-19T01:38:40.048Z,4.00
2022-12-19T01:44:01.017Z,4.00
2022-12-19T01:49:10.387Z,4.00
2022-12-19T01:54:19.808Z,4.10
2022-12-19T01:59:28.128Z,4.20
2022-12-19T02:04:32.830Z,4.20
2022-12-19T02:09:37.169Z,4.30
2022-12-19T02:14:40.747Z,4.30
2022-12-19T02:20:00.934Z,4.30
2022-12-19T02:25:31.042Z,4.40
2022-12-19T02:30:52.684Z,4.40
2022-12-19T02:36:04.806Z,4.30
2022-12-19T02:41:09.956Z,4.40
2022-12-19T02:46:13.955Z,4.40
2022-12-19T02:51:18.757Z,4.50
2022-12-19T02:56:40.233Z,4.50
2022-12-19T03:01:53.870Z,4.50
2022-12-19T03:07:09.908Z,4.50
2022-12-19T03:12:21.163Z,4.60
2022-12-19T03:17:23.573Z,4.60
2022-12-19T03:22:25.662Z,4.70
2022-12-19T03:27:32.336Z,4.70
2022-12-19T03:32:39.176Z,4.70
2022-12-19T03:37:43.255Z,4.70
2022-12-19T03:43:07.204Z,4.70
2022-12-19T03:48:32.202Z,4.60
2022-12-19T03:53:49.827Z,4.50
2022-12-19T03:58:58.607Z,4.60
2022-12-19T04:04:02.534Z,4.50
2022-12-19T04:09:04.826Z,4.50
2022-12-19T04:14:12.745Z,4.60
2022-12-19T04:19:24.099Z,4.70
2022-12-19T04:24:33.858Z,4.70
2022-12-19T04:29:39.137Z,4.70
2022-12-19T04:34:42.966Z,4.70
2022-12-19T04:39:45.273Z,4.70
2022-12-19T04:44:47.311Z,4.70
2022-12-19T04:49:52.744Z,4.70
2022-12-19T04:54:54.678Z,4.80
2022-12-19T04:59:56.704Z,4.80
2022-12-19T05:04:58.723Z,4.80
2022-12-19T05:10:00.720Z,4.80
2022-12-19T05:15:02.706Z,4.80
2022-12-19T05:20:06.892Z,4.90
2022-12-19T05:25:09.293Z,4.90
2022-12-19T05:30:11.690Z,4.90
2022-12-19T05:35:13.745Z,5.00
2022-12-19T05:40:15.772Z,5.00
2022-12-19T05:45:17.908Z,5.00
2022-12-19T05:50:19.921Z,5.00
2022-12-19T05:55:26.204Z,5.00
2022-12-19T06:00:28.122Z,5.10
2022-12-19T06:05:30.559Z,5.10
2022-12-19T06:10:32.611Z,5.10
2022-12-19T06:15:37.389Z,5.10
2022-12-19T06:20:39.757Z,5.20
2022-12-19T06:25:42.024Z,5.10
2022-12-19T06:30:44.287Z,5.20
2022-12-19T06:35:46.316Z,5.20
2022-12-19T06:41:07.086Z,5.20
2022-12-19T06:46:09.644Z,5.30
2022-12-19T06:51:11.735Z,5.20
2022-12-19T06:56:15.431Z,5.30
2022-12-19T07:01:42.591Z,5.50
2022-12-19T07:06:49.116Z,5.50
2022-12-19T07:11:51.509Z,5.50
2022-12-19T07:16:54.806Z,5.50
2022-12-19T07:21:57.118Z,5.50
2022-12-19T07:26:59.139Z,5.50
2022-12-19T07:32:01.251Z,5.50
2022-12-19T07:37:03.274Z,5.50
2022-12-19T07:42:05.394Z,5.60
2022-12-19T07:47:13.687Z,5.60
2022-12-19T07:52:22.253Z,5.60
2022-12-19T07:57:27.038Z,5.70
2022-12-19T08:02:33.748Z,5.70
2022-12-19T08:07:35.979Z,5.70
2022-12-19T08:12:37.888Z,5.70
2022-12-19T08:17:40.550Z,5.80
2022-12-19T08:22:47.297Z,5.80
2022-12-19T08:27:49.428Z,5.90
2022-12-19T08:32:51.398Z,5.90
2022-12-19T08:37:53.555Z,5.80
2022-12-19T08:42:55.486Z,5.90
2022-12-19T08:47:57.426Z,5.90
2022-12-19T08:52:59.401Z,5.80
2022-12-19T08:58:01.806Z,5.90
2022-12-19T09:03:04.633Z,6.00
2022-12-19T09:08:08.569Z,6.10
2022-12-19T09:13:10.466Z,6.30
2022-12-19T09:18:12.469Z,6.40
2022-12-19T09:23:14.662Z,6.40
2022-12-19T09:28:32.035Z,6.50
2022-12-19T09:33:43.434Z,6.70
2022-12-19T09:38:46.197Z,6.90
2022-12-19T09:44:02.074Z,7.10
2022-12-19T09:49:16.877Z,7.10
2022-12-19T09:54:27.746Z,7.10
2022-12-19T09:59:51.305Z,7.30
2022-12-19T10:05:17.943Z,7.60
2022-12-19T10:12:46.089Z,7.70
2022-12-19T10:16:25.579Z,7.80
2022-12-19T10:21:58.882Z,8.00
2022-12-19T10:27:27.190Z,8.00
2022-12-19T10:32:39.001Z,8.00
2022-12-19T10:37:49.884Z,7.90
2022-12-19T10:48:29.670Z,7.70
2022-12-19T10:53:35.911Z,7.50
2022-12-19T10:58:42.444Z,7.50
2022-12-19T11:04:15.492Z,7.50
2022-12-19T11:09:29.932Z,7.60
2022-12-19T11:18:09.858Z,7.60
2022-12-19T11:28:36.048Z,7.60
2022-12-19T11:29:37.051Z,7.60
2022-12-19T11:36:07.622Z,7.60
2022-12-19T11:41:18.359Z,7.70
2022-12-19T11:46:39.850Z,7.80
2022-12-19T11:51:48.061Z,7.90
2022-12-19T11:56:50.905Z,7.90
2022-12-19T12:02:11.911Z,7.90
2022-12-19T12:07:34.980Z,7.90
2022-12-19T12:15:31.952Z,8.00
2022-12-19T12:31:06.027Z,8.10
2022-12-19T12:31:39.619Z,8.00
2022-12-19T12:32:05.260Z,8.00
2022-12-19T12:37:57.345Z,8.00
2022-12-19T12:41:01.544Z,8.00
2022-12-19T12:46:19.043Z,8.10
2022-12-19T13:30:46.472Z,8.60
2022-12-19T13:39:27.651Z,8.60
2022-12-19T13:42:35.884Z,8.70
2022-12-19T14:18:44.936Z,8.70
2022-12-19T14:30:30.464Z,8.70
2022-12-19T14:41:52.626Z,8.70
2022-12-19T15:01:28.985Z,8.40
2022-12-19T15:14:52.563Z,8.40
2022-12-19T15:19:29.220Z,8.30
2022-12-19T15:24:57.129Z,8.20
2022-12-19T15:30:02.291Z,8.10
2022-12-19T15:35:16.497Z,8.10
2022-12-19T15:40:20.523Z,8.10
2022-12-19T15:45:26.380Z,8.00
2022-12-19T15:51:33.339Z,8.00
2022-12-19T15:56:48.847Z,7.90
2022-12-19T16:01:52.556Z,7.80
2022-12-19T16:07:06.924Z,7.70
2022-12-19T16:12:40.516Z,7.50
2022-12-19T16:17:53.387Z,7.50
2022-12-19T16:23:01.089Z,7.50
2022-12-19T16:28:08.463Z,7.30
2022-12-19T16:33:23.335Z,7.30
2022-12-19T16:38:30.994Z,7.10
2022-12-19T16:43:33.525Z,7.10
2022-12-19T16:48:36.132Z,7.00
2022-12-19T16:53:38.292Z,6.90
2022-12-19T16:58:43.281Z,6.90
2022-12-19T17:03:46.041Z,6.80
2022-12-19T17:08:48.797Z,6.70
2022-12-19T17:13:55.475Z,6.70
2022-12-19T17:18:58.534Z,6.70
2022-12-19T17:24:00.548Z,6.60
2022-12-19T17:29:02.759Z,6.70
2022-12-19T17:34:22.057Z,6.60
2022-12-19T17:39:27.617Z,6.60
2022-12-19T17:44:30.206Z,6.50
2022-12-19T17:49:34.008Z,6.40
2022-12-19T17:54:36.944Z,6.50
2022-12-19T17:59:41.334Z,6.50
2022-12-19T18:04:44.490Z,6.50
2022-12-19T18:09:47.199Z,6.30
2022-12-19T18:14:50.591Z,6.20
2022-12-19T18:19:52.912Z,6.20
2022-12-19T18:24:56.758Z,6.20
2022-12-19T18:30:08.871Z,6.20
2022-12-19T18:35:17.841Z,6.20
2022-12-19T18:40:31.104Z,6.20
2022-12-19T18:45:46.099Z,6.20
2022-12-19T18:50:52.673Z,6.20
2022-12-19T18:55:55.717Z,6.10
2022-12-19T19:00:59.982Z,6.10
2022-12-19T19:06:04.116Z,6.10
2022-12-19T19:11:08.046Z,6.20
2022-12-19T19:16:29.991Z,6.10
2022-12-19T19:21:35.634Z,6.10
2022-12-19T19:26:40.009Z,6.10
2022-12-19T19:31:47.619Z,6.10
2022-12-19T19:36:54.825Z,6.10
2022-12-19T19:41:57.191Z,6.10
2022-12-19T19:46:59.886Z,6.00
2022-12-19T19:52:03.345Z,6.00
2022-12-19T19:57:09.513Z,6.00
2022-12-19T20:02:17.097Z,6.00
2022-12-19T20:07:20.036Z,6.00
2022-12-19T20:12:34.634Z,5.90
2022-12-19T20:17:37.100Z,5.90
2022-12-19T20:22:43.172Z,5.90
2022-12-19T20:27:49.689Z,6.00
2022-12-19T20:32:52.399Z,6.00
2022-12-19T20:37:55.232Z,6.00
2022-12-19T20:42:59.111Z,5.90
2022-12-19T20:48:03.521Z,5.80
2022-12-19T20:53:07.201Z,5.80
2022-12-19T20:58:16.469Z,5.80
2022-12-19T21:03:29.873Z,5.80
2022-12-19T21:08:42.549Z,5.70
2022-12-19T21:13:45.897Z,5.70
2022-12-19T21:18:50.539Z,5.60
2022-12-19T21:23:54.989Z,5.70
2022-12-19T21:28:59.550Z,5.70
2022-12-19T21:34:07.229Z,5.70
2022-12-19T21:39:11.266Z,5.60
2022-12-19T21:44:14.086Z,5.70
2022-12-19T21:49:16.936Z,5.60
2022-12-19T21:54:22.863Z,5.50
2022-12-19T21:59:25.629Z,5.60
2022-12-19T22:04:28.731Z,5.60
2022-12-19T22:09:36.425Z,5.60
2022-12-19T22:14:39.319Z,5.60
2022-12-19T22:19:42.834Z,5.60
2022-12-19T22:24:45.888Z,5.70
2022-12-19T22:29:48.528Z,5.70
2022-12-19T22:34:51.285Z,5.70
2022-12-19T22:40:00.337Z,5.80
2022-12-19T22:45:03.865Z,5.90
2022-12-19T22:50:07.358Z,5.90
2022-12-19T22:55:09.955Z,5.80
2022-12-19T23:00:16.563Z,5.80
2022-12-19T23:05:19.337Z,5.80
2022-12-19T23:10:24.640Z,5.80
2022-12-19T23:15:27.041Z,5.90
2022-12-19T23:20:29.304Z,6.00
2022-12-19T23:25:32.043Z,6.00
2022-12-19T23:30:34.245Z,6.00
2022-12-19T23:35:36.032Z,6.10
2022-12-19T23:40:38.273Z,6.10
2022-12-19T23:45:43.282Z,6.10
2022-12-19T23:50:46.531Z,6.10
2022-12-19T23:55:52.594Z,6.00
